sensor_id;sensor_type;location;lat;lon;timestamp;temperature;humidity
11079;DHT22;5592;49.234;7.268;2023-03-22T00:02:11;9.00;99.90
11079;DHT22;5592;49.234;7.268;2023-03-22T00:04:36;9.10;99.90
11079;DHT22;5592;49.234;7.268;2023-03-22T00:07:02;9.10;99.90
11079;DHT22;5592;49.234;7.268;2023-03-22T00:09:28;9.10;99.90
11079;DHT22;5592;49.234;7.268;2023-03-22T00:11:53;9.20;99.90
11079;DHT22;5592;49.234;7.268;2023-03-22T00:14:19;9.30;99.90
11079;DHT22;5592;49.234;7.268;2023-03-22T00:16:44;9.40;99.90
11079;DHT22;5592;49.234;7.268;2023-03-22T00:19:14;9.50;99.90
11079;DHT22;5592;49.234;7.268;2023-03-22T00:21:42;9.50;99.90
11079;DHT22;5592;49.234;7.268;2023-03-22T00:24:08;9.60;99.90
11079;DHT22;5592;49.234;7.268;2023-03-22T00:26:33;9.60;99.90
11079;DHT22;5592;49.234;7.268;2023-03-22T00:28:59;9.60;99.90
11079;DHT22;5592;49.234;7.268;2023-03-22T00:31:25;9.70;99.90
11079;DHT22;5592;49.234;7.268;2023-03-22T00:33:50;9.80;99.90
11079;DHT22;5592;49.234;7.268;2023-03-22T00:36:16;9.70;99.90
11079;DHT22;5592;49.234;7.268;2023-03-22T00:38:41;9.60;99.90
11079;DHT22;5592;49.234;7.268;2023-03-22T00:41:22;9.50;99.90
11079;DHT22;5592;49.234;7.268;2023-03-22T00:43:49;9.40;99.90
11079;DHT22;5592;49.234;7.268;2023-03-22T00:46:17;9.40;99.90
11079;DHT22;5592;49.234;7.268;2023-03-22T00:48:43;9.40;99.90
11079;DHT22;5592;49.234;7.268;2023-03-22T00:51:12;9.30;99.90
11079;DHT22;5592;49.234;7.268;2023-03-22T00:53:38;9.30;99.90
11079;DHT22;5592;49.234;7.268;2023-03-22T00:56:05;9.20;99.90
11079;DHT22;5592;49.234;7.268;2023-03-22T00:58:31;9.20;99.90
11079;DHT22;5592;49.234;7.268;2023-03-22T01:00:56;9.20;99.90
11079;DHT22;5592;49.234;7.268;2023-03-22T01:03:22;9.10;99.90
11079;DHT22;5592;49.234;7.268;2023-03-22T01:05:51;9.10;99.90
11079;DHT22;5592;49.234;7.268;2023-03-22T01:08:20;9.10;99.90
11079;DHT22;5592;49.234;7.268;2023-03-22T01:10:48;9.10;99.90
11079;DHT22;5592;49.234;7.268;2023-03-22T01:13:14;9.10;99.90
11079;DHT22;5592;49.234;7.268;2023-03-22T01:15:40;9.10;99.90
11079;DHT22;5592;49.234;7.268;2023-03-22T01:18:06;9.10;99.90
11079;DHT22;5592;49.234;7.268;2023-03-22T01:20:32;9.10;99.90
11079;DHT22;5592;49.234;7.268;2023-03-22T01:22:58;9.10;99.90
11079;DHT22;5592;49.234;7.268;2023-03-22T01:25:24;9.20;99.90
11079;DHT22;5592;49.234;7.268;2023-03-22T01:27:49;9.20;99.90
11079;DHT22;5592;49.234;7.268;2023-03-22T01:30:15;9.30;99.90
11079;DHT22;5592;49.234;7.268;2023-03-22T01:32:41;9.40;99.90
11079;DHT22;5592;49.234;7.268;2023-03-22T01:35:07;9.40;99.90
11079;DHT22;5592;49.234;7.268;2023-03-22T01:37:33;9.40;99.90
11079;DHT22;5592;49.234;7.268;2023-03-22T01:39:59;9.40;99.90
11079;DHT22;5592;49.234;7.268;2023-03-22T01:42:25;9.30;99.90
11079;DHT22;5592;49.234;7.268;2023-03-22T01:48:42;9.40;99.90
11079;DHT22;5592;49.234;7.268;2023-03-22T01:51:05;9.40;99.90
11079;DHT22;5592;49.234;7.268;2023-03-22T01:53:44;9.40;99.90
11079;DHT22;5592;49.234;7.268;2023-03-22T01:56:11;9.40;99.90
11079;DHT22;5592;49.234;7.268;2023-03-22T01:58:38;9.40;99.90
11079;DHT22;5592;49.234;7.268;2023-03-22T02:01:06;9.30;99.90
11079;DHT22;5592;49.234;7.268;2023-03-22T02:03:54;9.40;99.90
11079;DHT22;5592;49.234;7.268;2023-03-22T02:06:22;9.30;99.90
11079;DHT22;5592;49.234;7.268;2023-03-22T02:08:49;9.40;99.90
11079;DHT22;5592;49.234;7.268;2023-03-22T02:11:27;9.40;99.90
11079;DHT22;5592;49.234;7.268;2023-03-22T02:28:18;9.40;99.90
11079;DHT22;5592;49.234;7.268;2023-03-22T02:31:05;9.30;99.90
11079;DHT22;5592;49.234;7.268;2023-03-22T02:34:04;9.30;99.90
11079;DHT22;5592;49.234;7.268;2023-03-22T02:47:17;9.30;99.90
11079;DHT22;5592;49.234;7.268;2023-03-22T02:49:59;9.40;99.90
11079;DHT22;5592;49.234;7.268;2023-03-22T02:52:42;9.40;99.90
11079;DHT22;5592;49.234;7.268;2023-03-22T02:57:49;9.30;99.90
11079;DHT22;5592;49.234;7.268;2023-03-22T03:00:18;9.40;99.90
11079;DHT22;5592;49.234;7.268;2023-03-22T03:02:51;9.30;99.90
11079;DHT22;5592;49.234;7.268;2023-03-22T03:05:19;9.20;99.90
11079;DHT22;5592;49.234;7.268;2023-03-22T03:07:53;9.10;99.90
11079;DHT22;5592;49.234;7.268;2023-03-22T03:10:21;9.00;99.90
11079;DHT22;5592;49.234;7.268;2023-03-22T03:12:47;8.90;99.90
11079;DHT22;5592;49.234;7.268;2023-03-22T03:15:18;8.70;99.90
11079;DHT22;5592;49.234;7.268;2023-03-22T03:31:36;7.40;99.90
11079;DHT22;5592;49.234;7.268;2023-03-22T03:34:25;7.20;99.90
11079;DHT22;5592;49.234;7.268;2023-03-22T03:37:17;7.10;99.90
11079;DHT22;5592;49.234;7.268;2023-03-22T03:40:03;7.00;99.90
11079;DHT22;5592;49.234;7.268;2023-03-22T03:42:31;6.80;99.90
11079;DHT22;5592;49.234;7.268;2023-03-22T03:44:58;6.70;99.90
11079;DHT22;5592;49.234;7.268;2023-03-22T03:47:24;6.50;99.90
11079;DHT22;5592;49.234;7.268;2023-03-22T03:49:52;6.40;99.90
11079;DHT22;5592;49.234;7.268;2023-03-22T03:52:18;6.30;99.90
11079;DHT22;5592;49.234;7.268;2023-03-22T03:54:43;6.20;99.90
11079;DHT22;5592;49.234;7.268;2023-03-22T03:57:10;6.10;99.90
11079;DHT22;5592;49.234;7.268;2023-03-22T03:59:36;6.00;99.90
11079;DHT22;5592;49.234;7.268;2023-03-22T04:02:02;6.00;99.90
11079;DHT22;5592;49.234;7.268;2023-03-22T04:04:28;5.90;99.90
11079;DHT22;5592;49.234;7.268;2023-03-22T04:06:58;5.80;99.90
11079;DHT22;5592;49.234;7.268;2023-03-22T04:09:26;5.80;99.90
11079;DHT22;5592;49.234;7.268;2023-03-22T04:11:53;5.80;99.90
11079;DHT22;5592;49.234;7.268;2023-03-22T04:14:19;5.70;99.90
11079;DHT22;5592;49.234;7.268;2023-03-22T04:16:45;5.60;99.90
11079;DHT22;5592;49.234;7.268;2023-03-22T04:19:11;5.60;99.90
11079;DHT22;5592;49.234;7.268;2023-03-22T04:21:36;5.60;99.90
11079;DHT22;5592;49.234;7.268;2023-03-22T04:24:02;5.70;99.90
11079;DHT22;5592;49.234;7.268;2023-03-22T04:26:28;5.80;99.90
11079;DHT22;5592;49.234;7.268;2023-03-22T04:28:54;5.90;99.90
11079;DHT22;5592;49.234;7.268;2023-03-22T04:31:24;5.90;99.90
11079;DHT22;5592;49.234;7.268;2023-03-22T04:33:50;5.80;99.90
11079;DHT22;5592;49.234;7.268;2023-03-22T04:36:20;5.80;99.90
11079;DHT22;5592;49.234;7.268;2023-03-22T04:38:46;5.70;99.90
11079;DHT22;5592;49.234;7.268;2023-03-22T04:41:12;5.60;99.90
11079;DHT22;5592;49.234;7.268;2023-03-22T04:43:37;5.50;99.90
11079;DHT22;5592;49.234;7.268;2023-03-22T04:46:07;5.50;99.90
11079;DHT22;5592;49.234;7.268;2023-03-22T04:48:38;5.40;99.90
11079;DHT22;5592;49.234;7.268;2023-03-22T04:51:05;5.40;99.90
11079;DHT22;5592;49.234;7.268;2023-03-22T04:53:31;5.40;99.90
11079;DHT22;5592;49.234;7.268;2023-03-22T04:56:00;5.30;99.90
11079;DHT22;5592;49.234;7.268;2023-03-22T04:58:27;5.30;99.90
11079;DHT22;5592;49.234;7.268;2023-03-22T05:00:53;5.30;99.90
11079;DHT22;5592;49.234;7.268;2023-03-22T05:03:19;5.40;99.90
11079;DHT22;5592;49.234;7.268;2023-03-22T05:05:53;5.40;99.90
11079;DHT22;5592;49.234;7.268;2023-03-22T05:08:20;5.40;99.90
11079;DHT22;5592;49.234;7.268;2023-03-22T05:10:46;5.40;99.90
11079;DHT22;5592;49.234;7.268;2023-03-22T05:13:12;5.40;99.90
11079;DHT22;5592;49.234;7.268;2023-03-22T05:15:38;5.50;99.90
11079;DHT22;5592;49.234;7.268;2023-03-22T05:18:04;5.70;99.90
11079;DHT22;5592;49.234;7.268;2023-03-22T05:20:30;5.90;99.90
11079;DHT22;5592;49.234;7.268;2023-03-22T05:22:55;6.10;99.90
11079;DHT22;5592;49.234;7.268;2023-03-22T05:25:21;6.20;99.90
11079;DHT22;5592;49.234;7.268;2023-03-22T05:27:47;6.30;99.90
11079;DHT22;5592;49.234;7.268;2023-03-22T05:30:15;6.50;99.90
11079;DHT22;5592;49.234;7.268;2023-03-22T05:32:41;6.60;99.90
11079;DHT22;5592;49.234;7.268;2023-03-22T05:35:09;6.70;99.90
11079;DHT22;5592;49.234;7.268;2023-03-22T05:37:35;6.80;99.90
11079;DHT22;5592;49.234;7.268;2023-03-22T05:40:01;6.80;99.90
11079;DHT22;5592;49.234;7.268;2023-03-22T05:42:29;6.90;99.90
11079;DHT22;5592;49.234;7.268;2023-03-22T05:44:55;7.00;99.90
11079;DHT22;5592;49.234;7.268;2023-03-22T05:47:21;7.00;99.90
11079;DHT22;5592;49.234;7.268;2023-03-22T05:49:47;7.10;99.90
11079;DHT22;5592;49.234;7.268;2023-03-22T05:52:12;7.10;99.90
11079;DHT22;5592;49.234;7.268;2023-03-22T05:54:38;7.20;99.90
11079;DHT22;5592;49.234;7.268;2023-03-22T05:57:04;7.20;99.90
11079;DHT22;5592;49.234;7.268;2023-03-22T05:59:29;7.30;99.90
11079;DHT22;5592;49.234;7.268;2023-03-22T06:01:55;7.40;99.90
11079;DHT22;5592;49.234;7.268;2023-03-22T06:04:20;7.50;99.90
11079;DHT22;5592;49.234;7.268;2023-03-22T06:06:46;7.60;99.90
11079;DHT22;5592;49.234;7.268;2023-03-22T06:09:12;7.70;99.90
11079;DHT22;5592;49.234;7.268;2023-03-22T06:11:39;7.70;99.90
11079;DHT22;5592;49.234;7.268;2023-03-22T06:14:04;7.80;99.90
11079;DHT22;5592;49.234;7.268;2023-03-22T06:16:33;7.90;99.90
11079;DHT22;5592;49.234;7.268;2023-03-22T06:19:01;8.00;99.90
11079;DHT22;5592;49.234;7.268;2023-03-22T06:21:27;8.00;99.90
11079;DHT22;5592;49.234;7.268;2023-03-22T06:23:52;8.10;99.90
11079;DHT22;5592;49.234;7.268;2023-03-22T06:26:18;8.20;99.90
11079;DHT22;5592;49.234;7.268;2023-03-22T06:28:44;8.30;99.90
11079;DHT22;5592;49.234;7.268;2023-03-22T06:31:09;8.40;99.90
11079;DHT22;5592;49.234;7.268;2023-03-22T06:33:36;8.50;99.90
11079;DHT22;5592;49.234;7.268;2023-03-22T06:36:02;8.50;99.90
11079;DHT22;5592;49.234;7.268;2023-03-22T06:38:29;8.60;99.90
11079;DHT22;5592;49.234;7.268;2023-03-22T06:40:54;8.70;99.90
11079;DHT22;5592;49.234;7.268;2023-03-22T06:43:20;8.80;99.90
11079;DHT22;5592;49.234;7.268;2023-03-22T06:45:47;8.90;99.90
11079;DHT22;5592;49.234;7.268;2023-03-22T06:48:13;9.00;99.90
11079;DHT22;5592;49.234;7.268;2023-03-22T06:50:39;9.10;99.90
11079;DHT22;5592;49.234;7.268;2023-03-22T06:53:06;9.10;99.90
11079;DHT22;5592;49.234;7.268;2023-03-22T06:55:33;9.20;99.90
11079;DHT22;5592;49.234;7.268;2023-03-22T06:58:02;9.30;99.90
11079;DHT22;5592;49.234;7.268;2023-03-22T07:00:28;9.40;99.90
11079;DHT22;5592;49.234;7.268;2023-03-22T07:02:54;9.50;99.90
11079;DHT22;5592;49.234;7.268;2023-03-22T07:05:20;9.60;99.90
11079;DHT22;5592;49.234;7.268;2023-03-22T07:07:46;9.80;99.90
11079;DHT22;5592;49.234;7.268;2023-03-22T07:10:11;9.90;99.90
11079;DHT22;5592;49.234;7.268;2023-03-22T07:12:37;10.10;99.90
11079;DHT22;5592;49.234;7.268;2023-03-22T07:15:03;10.20;99.90
11079;DHT22;5592;49.234;7.268;2023-03-22T07:17:29;10.50;99.90
11079;DHT22;5592;49.234;7.268;2023-03-22T07:19:55;10.70;99.90
11079;DHT22;5592;49.234;7.268;2023-03-22T07:22:20;11.00;99.90
11079;DHT22;5592;49.234;7.268;2023-03-22T07:24:47;11.20;99.90
11079;DHT22;5592;49.234;7.268;2023-03-22T07:27:13;11.40;99.90
11079;DHT22;5592;49.234;7.268;2023-03-22T07:29:39;11.60;99.90
11079;DHT22;5592;49.234;7.268;2023-03-22T07:32:05;11.80;99.90
11079;DHT22;5592;49.234;7.268;2023-03-22T07:34:31;11.90;99.90
11079;DHT22;5592;49.234;7.268;2023-03-22T07:36:57;12.50;99.90
11079;DHT22;5592;49.234;7.268;2023-03-22T07:39:23;13.20;99.90
11079;DHT22;5592;49.234;7.268;2023-03-22T07:41:53;14.50;99.90
11079;DHT22;5592;49.234;7.268;2023-03-22T07:44:22;15.80;99.90
11079;DHT22;5592;49.234;7.268;2023-03-22T07:46:48;17.40;99.90
11079;DHT22;5592;49.234;7.268;2023-03-22T07:49:16;18.90;99.90
11079;DHT22;5592;49.234;7.268;2023-03-22T07:51:41;19.50;99.90
11079;DHT22;5592;49.234;7.268;2023-03-22T07:54:07;19.10;99.90
11079;DHT22;5592;49.234;7.268;2023-03-22T07:56:33;18.70;99.90
11079;DHT22;5592;49.234;7.268;2023-03-22T07:58:58;18.20;99.90
11079;DHT22;5592;49.234;7.268;2023-03-22T08:01:24;17.90;99.90
11079;DHT22;5592;49.234;7.268;2023-03-22T08:03:50;17.70;99.90
11079;DHT22;5592;49.234;7.268;2023-03-22T08:06:15;17.40;99.90
11079;DHT22;5592;49.234;7.268;2023-03-22T08:08:44;17.40;99.90
11079;DHT22;5592;49.234;7.268;2023-03-22T08:11:10;17.50;99.90
11079;DHT22;5592;49.234;7.268;2023-03-22T08:13:38;17.80;99.90
11079;DHT22;5592;49.234;7.268;2023-03-22T08:16:05;18.60;99.90
11079;DHT22;5592;49.234;7.268;2023-03-22T08:18:31;18.90;99.90
11079;DHT22;5592;49.234;7.268;2023-03-22T08:20:58;19.60;99.90
11079;DHT22;5592;49.234;7.268;2023-03-22T08:23:24;20.30;99.90
11079;DHT22;5592;49.234;7.268;2023-03-22T08:25:51;20.50;99.90
11079;DHT22;5592;49.234;7.268;2023-03-22T08:28:17;21.20;99.90
11079;DHT22;5592;49.234;7.268;2023-03-22T08:30:45;20.10;99.90
11079;DHT22;5592;49.234;7.268;2023-03-22T08:33:11;19.20;99.90
11079;DHT22;5592;49.234;7.268;2023-03-22T08:35:37;18.90;99.90
11079;DHT22;5592;49.234;7.268;2023-03-22T08:38:03;18.30;99.90
11079;DHT22;5592;49.234;7.268;2023-03-22T08:40:29;17.60;99.90
11079;DHT22;5592;49.234;7.268;2023-03-22T08:42:55;17.10;99.90
11079;DHT22;5592;49.234;7.268;2023-03-22T08:45:21;17.10;99.90
11079;DHT22;5592;49.234;7.268;2023-03-22T08:47:46;17.90;99.90
11079;DHT22;5592;49.234;7.268;2023-03-22T08:50:12;18.70;99.90
11079;DHT22;5592;49.234;7.268;2023-03-22T08:52:38;18.50;99.90
11079;DHT22;5592;49.234;7.268;2023-03-22T08:55:05;18.50;99.90
11079;DHT22;5592;49.234;7.268;2023-03-22T08:57:35;18.70;99.90
11079;DHT22;5592;49.234;7.268;2023-03-22T09:00:03;18.90;99.90
11079;DHT22;5592;49.234;7.268;2023-03-22T09:02:31;19.40;99.90
11079;DHT22;5592;49.234;7.268;2023-03-22T09:04:59;19.40;99.90
11079;DHT22;5592;49.234;7.268;2023-03-22T09:07:26;18.90;99.90
11079;DHT22;5592;49.234;7.268;2023-03-22T09:09:52;18.10;99.90
11079;DHT22;5592;49.234;7.268;2023-03-22T09:12:17;17.80;99.90
11079;DHT22;5592;49.234;7.268;2023-03-22T09:14:44;17.70;99.90
11079;DHT22;5592;49.234;7.268;2023-03-22T09:17:15;17.50;99.90
11079;DHT22;5592;49.234;7.268;2023-03-22T09:19:49;17.90;99.90
11079;DHT22;5592;49.234;7.268;2023-03-22T09:22:15;17.90;99.90
11079;DHT22;5592;49.234;7.268;2023-03-22T09:24:42;17.30;99.90
11079;DHT22;5592;49.234;7.268;2023-03-22T09:27:10;17.50;99.90
11079;DHT22;5592;49.234;7.268;2023-03-22T09:29:40;17.50;99.90
11079;DHT22;5592;49.234;7.268;2023-03-22T09:32:07;17.50;99.90
11079;DHT22;5592;49.234;7.268;2023-03-22T09:34:32;17.20;99.90
11079;DHT22;5592;49.234;7.268;2023-03-22T09:36:58;17.30;99.90
11079;DHT22;5592;49.234;7.268;2023-03-22T09:39:27;17.00;99.90
11079;DHT22;5592;49.234;7.268;2023-03-22T09:41:56;17.00;99.90
11079;DHT22;5592;49.234;7.268;2023-03-22T09:44:28;17.60;99.90
11079;DHT22;5592;49.234;7.268;2023-03-22T09:46:58;18.20;99.90
11079;DHT22;5592;49.234;7.268;2023-03-22T09:49:37;18.80;99.90
11079;DHT22;5592;49.234;7.268;2023-03-22T09:52:11;18.70;99.90
11079;DHT22;5592;49.234;7.268;2023-03-22T09:54:40;18.60;99.90
11079;DHT22;5592;49.234;7.268;2023-03-22T10:08:06;17.70;99.90
11079;DHT22;5592;49.234;7.268;2023-03-22T10:10:36;17.70;99.90
11079;DHT22;5592;49.234;7.268;2023-03-22T10:13:14;17.60;99.90
11079;DHT22;5592;49.234;7.268;2023-03-22T10:15:48;17.70;99.90
11079;DHT22;5592;49.234;7.268;2023-03-22T10:18:22;18.30;99.90
11079;DHT22;5592;49.234;7.268;2023-03-22T10:20:59;18.40;99.90
11079;DHT22;5592;49.234;7.268;2023-03-22T10:26:05;18.40;99.90
11079;DHT22;5592;49.234;7.268;2023-03-22T10:28:40;18.40;99.90
11079;DHT22;5592;49.234;7.268;2023-03-22T10:31:13;18.30;99.90
11079;DHT22;5592;49.234;7.268;2023-03-22T10:33:44;18.20;99.90
11079;DHT22;5592;49.234;7.268;2023-03-22T10:36:16;18.60;99.90
11079;DHT22;5592;49.234;7.268;2023-03-22T10:38:53;18.30;99.90
11079;DHT22;5592;49.234;7.268;2023-03-22T10:41:23;17.90;99.90
11079;DHT22;5592;49.234;7.268;2023-03-22T10:43:52;17.80;99.90
11079;DHT22;5592;49.234;7.268;2023-03-22T10:46:22;17.90;99.90
11079;DHT22;5592;49.234;7.268;2023-03-22T10:48:51;17.90;99.90
11079;DHT22;5592;49.234;7.268;2023-03-22T10:51:36;18.10;99.90
11079;DHT22;5592;49.234;7.268;2023-03-22T10:54:04;18.40;99.90
11079;DHT22;5592;49.234;7.268;2023-03-22T10:56:30;18.50;99.90
11079;DHT22;5592;49.234;7.268;2023-03-22T10:58:56;18.90;99.90
11079;DHT22;5592;49.234;7.268;2023-03-22T11:01:30;19.30;99.90
11079;DHT22;5592;49.234;7.268;2023-03-22T11:04:16;19.60;99.90
11079;DHT22;5592;49.234;7.268;2023-03-22T11:06:50;19.30;99.90
11079;DHT22;5592;49.234;7.268;2023-03-22T11:09:21;19.00;99.90
11079;DHT22;5592;49.234;7.268;2023-03-22T11:12:01;18.80;99.90
11079;DHT22;5592;49.234;7.268;2023-03-22T11:14:31;18.70;99.90
11079;DHT22;5592;49.234;7.268;2023-03-22T11:17:22;18.70;99.90
11079;DHT22;5592;49.234;7.268;2023-03-22T11:19:56;18.60;99.90
11079;DHT22;5592;49.234;7.268;2023-03-22T11:22:35;18.60;99.90
11079;DHT22;5592;49.234;7.268;2023-03-22T11:25:03;18.70;99.90
11079;DHT22;5592;49.234;7.268;2023-03-22T11:27:32;19.20;99.90
11079;DHT22;5592;49.234;7.268;2023-03-22T11:30:35;18.40;99.90
11079;DHT22;5592;49.234;7.268;2023-03-22T11:35:35;18.20;99.90
11079;DHT22;5592;49.234;7.268;2023-03-22T11:38:01;18.90;99.90
11079;DHT22;5592;49.234;7.268;2023-03-22T11:40:33;19.60;99.90
11079;DHT22;5592;49.234;7.268;2023-03-22T11:43:11;20.00;99.90
11079;DHT22;5592;49.234;7.268;2023-03-22T11:45:42;20.00;99.90
11079;DHT22;5592;49.234;7.268;2023-03-22T11:48:14;20.40;99.90
11079;DHT22;5592;49.234;7.268;2023-03-22T11:50:42;19.80;99.90
11079;DHT22;5592;49.234;7.268;2023-03-22T11:53:14;19.60;99.90
11079;DHT22;5592;49.234;7.268;2023-03-22T11:55:42;19.40;99.90
11079;DHT22;5592;49.234;7.268;2023-03-22T12:00:49;18.40;99.90
11079;DHT22;5592;49.234;7.268;2023-03-22T12:03:19;18.00;99.90
11079;DHT22;5592;49.234;7.268;2023-03-22T12:05:48;17.50;99.90
11079;DHT22;5592;49.234;7.268;2023-03-22T12:08:38;17.50;99.90
11079;DHT22;5592;49.234;7.268;2023-03-22T12:11:16;17.40;99.90
11079;DHT22;5592;49.234;7.268;2023-03-22T12:16:45;17.30;99.90
11079;DHT22;5592;49.234;7.268;2023-03-22T12:22:06;16.90;99.90
11079;DHT22;5592;49.234;7.268;2023-03-22T12:24:36;16.80;99.90
11079;DHT22;5592;49.234;7.268;2023-03-22T12:27:44;17.00;99.90
11079;DHT22;5592;49.234;7.268;2023-03-22T12:30:22;17.50;99.90
11079;DHT22;5592;49.234;7.268;2023-03-22T12:33:07;17.70;99.90
11079;DHT22;5592;49.234;7.268;2023-03-22T12:35:36;18.30;99.90
11079;DHT22;5592;49.234;7.268;2023-03-22T12:38:26;18.70;99.90
11079;DHT22;5592;49.234;7.268;2023-03-22T12:40:54;18.90;99.90
11079;DHT22;5592;49.234;7.268;2023-03-22T12:43:36;18.90;99.90
11079;DHT22;5592;49.234;7.268;2023-03-22T12:46:04;19.20;99.90
11079;DHT22;5592;49.234;7.268;2023-03-22T12:48:44;19.20;99.90
11079;DHT22;5592;49.234;7.268;2023-03-22T12:51:12;18.80;99.90
11079;DHT22;5592;49.234;7.268;2023-03-22T12:53:58;18.80;99.90
11079;DHT22;5592;49.234;7.268;2023-03-22T12:56:31;18.90;99.90
11079;DHT22;5592;49.234;7.268;2023-03-22T12:59:01;18.50;99.90
11079;DHT22;5592;49.234;7.268;2023-03-22T13:09:44;17.80;99.90
11079;DHT22;5592;49.234;7.268;2023-03-22T13:30:50;19.00;99.90
11079;DHT22;5592;49.234;7.268;2023-03-22T13:33:30;18.70;99.90
11079;DHT22;5592;49.234;7.268;2023-03-22T13:35:59;18.70;99.90
11079;DHT22;5592;49.234;7.268;2023-03-22T13:41:21;18.50;99.90
11079;DHT22;5592;49.234;7.268;2023-03-22T13:43:54;18.80;99.90
11079;DHT22;5592;49.234;7.268;2023-03-22T13:53:43;18.90;99.90
11079;DHT22;5592;49.234;7.268;2023-03-22T13:56:31;18.90;99.90
11079;DHT22;5592;49.234;7.268;2023-03-22T13:59:02;19.00;99.90
11079;DHT22;5592;49.234;7.268;2023-03-22T14:01:32;18.90;99.90
11079;DHT22;5592;49.234;7.268;2023-03-22T14:04:01;18.70;99.90
11079;DHT22;5592;49.234;7.268;2023-03-22T14:06:32;18.50;99.90
11079;DHT22;5592;49.234;7.268;2023-03-22T14:09:10;18.40;99.90
11079;DHT22;5592;49.234;7.268;2023-03-22T14:14:34;18.30;99.90
11079;DHT22;5592;49.234;7.268;2023-03-22T14:17:34;18.20;99.90
11079;DHT22;5592;49.234;7.268;2023-03-22T14:20:04;18.20;99.90
11079;DHT22;5592;49.234;7.268;2023-03-22T14:22:37;18.10;99.90
11079;DHT22;5592;49.234;7.268;2023-03-22T14:25:06;18.20;99.90
11079;DHT22;5592;49.234;7.268;2023-03-22T14:27:34;18.00;99.90
11079;DHT22;5592;49.234;7.268;2023-03-22T14:30:00;17.90;99.90
11079;DHT22;5592;49.234;7.268;2023-03-22T14:32:27;17.90;99.90
11079;DHT22;5592;49.234;7.268;2023-03-22T14:35:09;17.90;99.90
11079;DHT22;5592;49.234;7.268;2023-03-22T14:37:42;18.00;99.90
11079;DHT22;5592;49.234;7.268;2023-03-22T14:40:16;18.10;99.90
11079;DHT22;5592;49.234;7.268;2023-03-22T14:42:52;18.20;99.90
11079;DHT22;5592;49.234;7.268;2023-03-22T14:45:20;18.30;99.90
11079;DHT22;5592;49.234;7.268;2023-03-22T14:47:47;18.30;99.90
11079;DHT22;5592;49.234;7.268;2023-03-22T14:50:15;18.40;99.90
11079;DHT22;5592;49.234;7.268;2023-03-22T14:52:42;18.20;99.90
11079;DHT22;5592;49.234;7.268;2023-03-22T14:55:17;18.30;99.90
11079;DHT22;5592;49.234;7.268;2023-03-22T14:58:04;18.30;99.90
11079;DHT22;5592;49.234;7.268;2023-03-22T15:00:30;18.20;99.90
11079;DHT22;5592;49.234;7.268;2023-03-22T15:03:02;18.00;99.90
11079;DHT22;5592;49.234;7.268;2023-03-22T15:05:41;17.90;99.90
11079;DHT22;5592;49.234;7.268;2023-03-22T15:10:42;18.10;99.90
11079;DHT22;5592;49.234;7.268;2023-03-22T15:13:09;17.90;99.90
11079;DHT22;5592;49.234;7.268;2023-03-22T15:15:38;17.90;99.90
11079;DHT22;5592;49.234;7.268;2023-03-22T15:18:05;17.70;99.90
11079;DHT22;5592;49.234;7.268;2023-03-22T15:20:34;17.80;99.90
11079;DHT22;5592;49.234;7.268;2023-03-22T15:23:15;17.90;99.90
11079;DHT22;5592;49.234;7.268;2023-03-22T15:25:48;18.00;99.90
11079;DHT22;5592;49.234;7.268;2023-03-22T15:28:17;17.70;99.90
11079;DHT22;5592;49.234;7.268;2023-03-22T15:30:50;17.80;99.90
11079;DHT22;5592;49.234;7.268;2023-03-22T15:33:22;17.70;99.90
11079;DHT22;5592;49.234;7.268;2023-03-22T15:35:49;17.80;99.90
11079;DHT22;5592;49.234;7.268;2023-03-22T15:38:15;17.80;99.90
11079;DHT22;5592;49.234;7.268;2023-03-22T15:40:44;17.60;99.90
11079;DHT22;5592;49.234;7.268;2023-03-22T15:43:31;17.50;99.90
11079;DHT22;5592;49.234;7.268;2023-03-22T15:48:59;17.10;99.90
11079;DHT22;5592;49.234;7.268;2023-03-22T15:51:35;16.80;99.90
11079;DHT22;5592;49.234;7.268;2023-03-22T15:54:29;16.70;99.90
11079;DHT22;5592;49.234;7.268;2023-03-22T15:57:07;16.60;99.90
11079;DHT22;5592;49.234;7.268;2023-03-22T15:59:47;16.40;99.90
11079;DHT22;5592;49.234;7.268;2023-03-22T16:02:22;16.40;99.90
11079;DHT22;5592;49.234;7.268;2023-03-22T16:04:50;16.20;99.90
11079;DHT22;5592;49.234;7.268;2023-03-22T16:07:23;16.20;99.90
11079;DHT22;5592;49.234;7.268;2023-03-22T16:09:49;16.10;99.90
11079;DHT22;5592;49.234;7.268;2023-03-22T16:12:16;15.90;99.90
11079;DHT22;5592;49.234;7.268;2023-03-22T16:14:42;15.90;99.90
11079;DHT22;5592;49.234;7.268;2023-03-22T16:17:34;15.90;99.90
11079;DHT22;5592;49.234;7.268;2023-03-22T16:20:00;15.90;99.90
11079;DHT22;5592;49.234;7.268;2023-03-22T16:22:26;15.90;99.90
11079;DHT22;5592;49.234;7.268;2023-03-22T16:24:51;15.80;99.90
11079;DHT22;5592;49.234;7.268;2023-03-22T16:27:19;15.70;99.90
11079;DHT22;5592;49.234;7.268;2023-03-22T16:29:46;15.60;99.90
11079;DHT22;5592;49.234;7.268;2023-03-22T16:32:21;15.60;99.90
11079;DHT22;5592;49.234;7.268;2023-03-22T16:34:47;15.50;99.90
11079;DHT22;5592;49.234;7.268;2023-03-22T16:37:17;15.50;99.90
11079;DHT22;5592;49.234;7.268;2023-03-22T16:39:44;15.40;99.90
11079;DHT22;5592;49.234;7.268;2023-03-22T16:42:18;15.30;99.90
11079;DHT22;5592;49.234;7.268;2023-03-22T16:44:45;15.30;99.90
11079;DHT22;5592;49.234;7.268;2023-03-22T16:47:13;15.30;99.90
11079;DHT22;5592;49.234;7.268;2023-03-22T16:49:39;15.20;99.90
11079;DHT22;5592;49.234;7.268;2023-03-22T16:52:05;15.10;99.90
11079;DHT22;5592;49.234;7.268;2023-03-22T16:54:32;15.10;99.90
11079;DHT22;5592;49.234;7.268;2023-03-22T16:56:58;15.10;99.90
11079;DHT22;5592;49.234;7.268;2023-03-22T16:59:24;15.10;99.90
11079;DHT22;5592;49.234;7.268;2023-03-22T17:01:50;15.10;99.90
11079;DHT22;5592;49.234;7.268;2023-03-22T17:04:16;15.00;99.90
11079;DHT22;5592;49.234;7.268;2023-03-22T17:06:42;15.00;99.90
11079;DHT22;5592;49.234;7.268;2023-03-22T17:09:07;14.90;99.90
11079;DHT22;5592;49.234;7.268;2023-03-22T17:11:33;14.80;99.90
11079;DHT22;5592;49.234;7.268;2023-03-22T17:13:59;14.80;99.90
11079;DHT22;5592;49.234;7.268;2023-03-22T17:16:25;14.80;99.90
11079;DHT22;5592;49.234;7.268;2023-03-22T17:18:51;14.70;99.90
11079;DHT22;5592;49.234;7.268;2023-03-22T17:21:18;14.70;99.90
11079;DHT22;5592;49.234;7.268;2023-03-22T17:23:46;14.60;99.90
11079;DHT22;5592;49.234;7.268;2023-03-22T17:26:13;14.50;99.90
11079;DHT22;5592;49.234;7.268;2023-03-22T17:28:39;14.40;99.90
11079;DHT22;5592;49.234;7.268;2023-03-22T17:31:05;14.40;99.90
11079;DHT22;5592;49.234;7.268;2023-03-22T17:33:31;14.30;99.90
11079;DHT22;5592;49.234;7.268;2023-03-22T17:35:58;14.20;99.90
11079;DHT22;5592;49.234;7.268;2023-03-22T17:38:24;14.10;99.90
11079;DHT22;5592;49.234;7.268;2023-03-22T17:40:50;14.10;99.90
11079;DHT22;5592;49.234;7.268;2023-03-22T17:43:16;14.00;99.90
11079;DHT22;5592;49.234;7.268;2023-03-22T17:45:41;14.00;99.90
11079;DHT22;5592;49.234;7.268;2023-03-22T17:48:07;14.00;99.90
11079;DHT22;5592;49.234;7.268;2023-03-22T17:50:34;13.90;99.90
11079;DHT22;5592;49.234;7.268;2023-03-22T17:53:01;13.90;99.90
11079;DHT22;5592;49.234;7.268;2023-03-22T17:55:29;13.80;99.90
11079;DHT22;5592;49.234;7.268;2023-03-22T17:57:56;13.70;99.90
11079;DHT22;5592;49.234;7.268;2023-03-22T18:00:22;13.60;99.90
11079;DHT22;5592;49.234;7.268;2023-03-22T18:02:49;13.60;99.90